sensor_id;sensor_type;location;lat;lon;timestamp;temperature;humidity
6333;DHT22;3199;49.102;8.856;2022-07-01T00:00:31;15.30;99.90
6333;DHT22;3199;49.102;8.856;2022-07-01T00:02:57;15.20;99.90
6333;DHT22;3199;49.102;8.856;2022-07-01T00:05:23;15.20;99.90
6333;DHT22;3199;49.102;8.856;2022-07-01T00:07:48;15.20;99.90
6333;DHT22;3199;49.102;8.856;2022-07-01T00:10:14;15.20;99.90
6333;DHT22;3199;49.102;8.856;2022-07-01T00:12:40;15.20;99.90
6333;DHT22;3199;49.102;8.856;2022-07-01T00:15:06;15.20;99.90
6333;DHT22;3199;49.102;8.856;2022-07-01T00:17:31;15.20;99.90
6333;DHT22;3199;49.102;8.856;2022-07-01T00:19:57;15.20;99.90
6333;DHT22;3199;49.102;8.856;2022-07-01T00:22:22;15.30;99.90
6333;DHT22;3199;49.102;8.856;2022-07-01T00:24:48;15.30;99.90
6333;DHT22;3199;49.102;8.856;2022-07-01T00:27:17;15.30;99.90
6333;DHT22;3199;49.102;8.856;2022-07-01T00:29:43;15.30;99.90
6333;DHT22;3199;49.102;8.856;2022-07-01T00:32:08;15.30;99.90
6333;DHT22;3199;49.102;8.856;2022-07-01T00:34:34;15.30;99.90
6333;DHT22;3199;49.102;8.856;2022-07-01T00:37:00;15.30;99.90
6333;DHT22;3199;49.102;8.856;2022-07-01T00:39:26;15.20;99.90
6333;DHT22;3199;49.102;8.856;2022-07-01T00:41:51;15.20;99.90
6333;DHT22;3199;49.102;8.856;2022-07-01T00:44:18;15.20;99.90
6333;DHT22;3199;49.102;8.856;2022-07-01T00:46:44;15.30;99.90
6333;DHT22;3199;49.102;8.856;2022-07-01T00:49:10;15.30;99.90
6333;DHT22;3199;49.102;8.856;2022-07-01T00:51:36;15.40;99.90
6333;DHT22;3199;49.102;8.856;2022-07-01T00:54:02;15.30;99.90
6333;DHT22;3199;49.102;8.856;2022-07-01T00:56:28;15.30;99.90
6333;DHT22;3199;49.102;8.856;2022-07-01T00:58:55;15.30;99.90
6333;DHT22;3199;49.102;8.856;2022-07-01T01:01:21;15.30;99.90
6333;DHT22;3199;49.102;8.856;2022-07-01T01:03:48;15.30;99.90
6333;DHT22;3199;49.102;8.856;2022-07-01T01:06:15;15.20;99.90
6333;DHT22;3199;49.102;8.856;2022-07-01T01:08:41;15.20;99.90
6333;DHT22;3199;49.102;8.856;2022-07-01T01:11:07;15.10;99.90
6333;DHT22;3199;49.102;8.856;2022-07-01T01:13:33;15.10;99.90
6333;DHT22;3199;49.102;8.856;2022-07-01T01:15:59;15.00;99.90
6333;DHT22;3199;49.102;8.856;2022-07-01T01:18:25;15.00;99.90
6333;DHT22;3199;49.102;8.856;2022-07-01T01:20:52;15.00;99.90
6333;DHT22;3199;49.102;8.856;2022-07-01T01:23:18;14.90;99.90
6333;DHT22;3199;49.102;8.856;2022-07-01T01:25:45;14.90;99.90
6333;DHT22;3199;49.102;8.856;2022-07-01T01:28:11;14.90;99.90
6333;DHT22;3199;49.102;8.856;2022-07-01T01:30:37;14.90;99.90
6333;DHT22;3199;49.102;8.856;2022-07-01T01:33:03;14.90;99.90
6333;DHT22;3199;49.102;8.856;2022-07-01T01:35:28;14.80;99.90
6333;DHT22;3199;49.102;8.856;2022-07-01T01:37:54;14.90;99.90
6333;DHT22;3199;49.102;8.856;2022-07-01T01:40:19;14.90;99.90
6333;DHT22;3199;49.102;8.856;2022-07-01T01:42:45;14.90;99.90
6333;DHT22;3199;49.102;8.856;2022-07-01T01:45:12;14.90;99.90
6333;DHT22;3199;49.102;8.856;2022-07-01T01:47:37;14.90;99.90
6333;DHT22;3199;49.102;8.856;2022-07-01T01:50:07;14.90;99.90
6333;DHT22;3199;49.102;8.856;2022-07-01T01:52:33;14.90;99.90
6333;DHT22;3199;49.102;8.856;2022-07-01T01:54:59;14.80;99.90
6333;DHT22;3199;49.102;8.856;2022-07-01T01:57:25;14.80;99.90
6333;DHT22;3199;49.102;8.856;2022-07-01T01:59:50;14.80;99.90
6333;DHT22;3199;49.102;8.856;2022-07-01T02:02:16;14.80;99.90
6333;DHT22;3199;49.102;8.856;2022-07-01T02:04:42;14.80;99.90
6333;DHT22;3199;49.102;8.856;2022-07-01T02:07:08;14.70;99.90
6333;DHT22;3199;49.102;8.856;2022-07-01T02:09:33;14.70;99.90
6333;DHT22;3199;49.102;8.856;2022-07-01T02:11:59;14.70;99.90
6333;DHT22;3199;49.102;8.856;2022-07-01T02:14:24;14.70;99.90
6333;DHT22;3199;49.102;8.856;2022-07-01T02:16:50;14.70;99.90
6333;DHT22;3199;49.102;8.856;2022-07-01T02:19:15;14.70;99.90
6333;DHT22;3199;49.102;8.856;2022-07-01T02:21:41;14.70;99.90
6333;DHT22;3199;49.102;8.856;2022-07-01T02:24:07;14.70;99.90
6333;DHT22;3199;49.102;8.856;2022-07-01T02:26:33;14.80;99.90
6333;DHT22;3199;49.102;8.856;2022-07-01T02:28:58;14.80;99.90
6333;DHT22;3199;49.102;8.856;2022-07-01T02:31:24;14.90;99.90
6333;DHT22;3199;49.102;8.856;2022-07-01T02:33:49;14.90;99.90
6333;DHT22;3199;49.102;8.856;2022-07-01T02:36:15;14.80;99.90
6333;DHT22;3199;49.102;8.856;2022-07-01T02:38:40;14.80;99.90
6333;DHT22;3199;49.102;8.856;2022-07-01T02:41:06;14.80;99.90
6333;DHT22;3199;49.102;8.856;2022-07-01T02:43:31;14.80;99.90
6333;DHT22;3199;49.102;8.856;2022-07-01T02:45:58;14.80;99.90
6333;DHT22;3199;49.102;8.856;2022-07-01T02:48:23;14.70;99.90
6333;DHT22;3199;49.102;8.856;2022-07-01T02:50:49;14.70;99.90
6333;DHT22;3199;49.102;8.856;2022-07-01T02:53:14;14.70;99.90
6333;DHT22;3199;49.102;8.856;2022-07-01T02:55:40;14.70;99.90
6333;DHT22;3199;49.102;8.856;2022-07-01T02:58:07;14.70;99.90
6333;DHT22;3199;49.102;8.856;2022-07-01T03:00:32;14.70;99.90
6333;DHT22;3199;49.102;8.856;2022-07-01T03:02:58;14.60;99.90
6333;DHT22;3199;49.102;8.856;2022-07-01T03:05:24;14.60;99.90
6333;DHT22;3199;49.102;8.856;2022-07-01T03:07:49;14.60;99.90
6333;DHT22;3199;49.102;8.856;2022-07-01T03:10:16;14.60;99.90
6333;DHT22;3199;49.102;8.856;2022-07-01T03:12:41;14.50;99.90
6333;DHT22;3199;49.102;8.856;2022-07-01T03:15:12;14.50;99.90
6333;DHT22;3199;49.102;8.856;2022-07-01T03:17:46;14.50;99.90
6333;DHT22;3199;49.102;8.856;2022-07-01T03:20:15;14.50;99.90
6333;DHT22;3199;49.102;8.856;2022-07-01T03:22:42;14.50;99.90
6333;DHT22;3199;49.102;8.856;2022-07-01T03:25:09;14.50;99.90
6333;DHT22;3199;49.102;8.856;2022-07-01T03:27:35;14.50;99.90
6333;DHT22;3199;49.102;8.856;2022-07-01T03:30:02;14.50;99.90
6333;DHT22;3199;49.102;8.856;2022-07-01T03:32:28;14.50;99.90
6333;DHT22;3199;49.102;8.856;2022-07-01T03:34:53;14.40;99.90
6333;DHT22;3199;49.102;8.856;2022-07-01T03:37:20;14.50;99.90
6333;DHT22;3199;49.102;8.856;2022-07-01T03:39:46;14.40;99.90
6333;DHT22;3199;49.102;8.856;2022-07-01T03:42:12;14.40;99.90
6333;DHT22;3199;49.102;8.856;2022-07-01T03:44:38;14.40;99.90
6333;DHT22;3199;49.102;8.856;2022-07-01T03:47:05;14.40;99.90
6333;DHT22;3199;49.102;8.856;2022-07-01T03:49:34;14.40;99.90
6333;DHT22;3199;49.102;8.856;2022-07-01T03:52:00;14.30;99.90
6333;DHT22;3199;49.102;8.856;2022-07-01T03:54:26;14.30;99.90
6333;DHT22;3199;49.102;8.856;2022-07-01T03:56:58;14.30;99.90
6333;DHT22;3199;49.102;8.856;2022-07-01T03:59:26;14.30;99.90
6333;DHT22;3199;49.102;8.856;2022-07-01T04:01:53;14.30;99.90
6333;DHT22;3199;49.102;8.856;2022-07-01T04:04:18;14.30;99.90
6333;DHT22;3199;49.102;8.856;2022-07-01T04:06:45;14.20;99.90
6333;DHT22;3199;49.102;8.856;2022-07-01T04:09:12;14.30;99.90
6333;DHT22;3199;49.102;8.856;2022-07-01T04:11:39;14.20;99.90
6333;DHT22;3199;49.102;8.856;2022-07-01T04:14:05;14.30;99.90
6333;DHT22;3199;49.102;8.856;2022-07-01T04:16:31;14.30;99.90
6333;DHT22;3199;49.102;8.856;2022-07-01T04:18:56;14.30;99.90
6333;DHT22;3199;49.102;8.856;2022-07-01T04:21:23;14.30;99.90
6333;DHT22;3199;49.102;8.856;2022-07-01T04:24:07;14.30;99.90
6333;DHT22;3199;49.102;8.856;2022-07-01T04:26:34;14.30;99.90
6333;DHT22;3199;49.102;8.856;2022-07-01T04:28:59;14.30;99.90
6333;DHT22;3199;49.102;8.856;2022-07-01T04:31:25;14.30;99.90
6333;DHT22;3199;49.102;8.856;2022-07-01T04:33:50;14.40;99.90
6333;DHT22;3199;49.102;8.856;2022-07-01T04:36:16;14.40;99.90
6333;DHT22;3199;49.102;8.856;2022-07-01T04:38:42;14.30;99.90
6333;DHT22;3199;49.102;8.856;2022-07-01T04:41:08;14.40;99.90
6333;DHT22;3199;49.102;8.856;2022-07-01T04:43:52;14.40;99.90
6333;DHT22;3199;49.102;8.856;2022-07-01T04:46:17;14.50;99.90
6333;DHT22;3199;49.102;8.856;2022-07-01T04:48:43;14.50;99.90
6333;DHT22;3199;49.102;8.856;2022-07-01T04:51:08;14.60;99.90
6333;DHT22;3199;49.102;8.856;2022-07-01T04:53:34;14.60;99.90
6333;DHT22;3199;49.102;8.856;2022-07-01T04:56:00;14.70;99.90
6333;DHT22;3199;49.102;8.856;2022-07-01T04:58:25;14.70;99.90
6333;DHT22;3199;49.102;8.856;2022-07-01T05:00:52;14.70;99.90
6333;DHT22;3199;49.102;8.856;2022-07-01T05:03:17;14.70;99.90
6333;DHT22;3199;49.102;8.856;2022-07-01T05:05:43;14.80;99.90
6333;DHT22;3199;49.102;8.856;2022-07-01T05:08:08;14.80;99.90
6333;DHT22;3199;49.102;8.856;2022-07-01T05:10:34;14.80;99.90
6333;DHT22;3199;49.102;8.856;2022-07-01T05:12:59;14.90;99.90
6333;DHT22;3199;49.102;8.856;2022-07-01T05:15:25;14.90;99.90
6333;DHT22;3199;49.102;8.856;2022-07-01T05:17:51;14.90;99.90
6333;DHT22;3199;49.102;8.856;2022-07-01T05:20:35;15.00;99.90
6333;DHT22;3199;49.102;8.856;2022-07-01T05:23:19;15.00;99.90
6333;DHT22;3199;49.102;8.856;2022-07-01T05:25:44;15.10;99.90
6333;DHT22;3199;49.102;8.856;2022-07-01T05:28:10;15.10;99.90
6333;DHT22;3199;49.102;8.856;2022-07-01T05:30:35;15.10;99.90
6333;DHT22;3199;49.102;8.856;2022-07-01T05:33:01;15.00;99.90
6333;DHT22;3199;49.102;8.856;2022-07-01T05:35:26;15.00;99.90
6333;DHT22;3199;49.102;8.856;2022-07-01T05:37:52;15.00;99.90
6333;DHT22;3199;49.102;8.856;2022-07-01T05:40:17;14.90;99.90
6333;DHT22;3199;49.102;8.856;2022-07-01T05:42:43;14.90;99.90
6333;DHT22;3199;49.102;8.856;2022-07-01T05:45:09;14.90;99.90
6333;DHT22;3199;49.102;8.856;2022-07-01T05:47:34;14.90;99.90
6333;DHT22;3199;49.102;8.856;2022-07-01T05:50:00;15.00;99.90
6333;DHT22;3199;49.102;8.856;2022-07-01T05:52:25;15.00;99.90
6333;DHT22;3199;49.102;8.856;2022-07-01T05:54:51;15.10;99.90
6333;DHT22;3199;49.102;8.856;2022-07-01T05:57:16;15.10;99.90
6333;DHT22;3199;49.102;8.856;2022-07-01T05:59:42;15.10;99.90
6333;DHT22;3199;49.102;8.856;2022-07-01T06:02:07;15.10;99.90
6333;DHT22;3199;49.102;8.856;2022-07-01T06:04:33;15.20;99.90
6333;DHT22;3199;49.102;8.856;2022-07-01T06:06:59;15.20;99.90
6333;DHT22;3199;49.102;8.856;2022-07-01T06:09:25;15.20;99.90
6333;DHT22;3199;49.102;8.856;2022-07-01T06:11:50;15.20;99.90
6333;DHT22;3199;49.102;8.856;2022-07-01T06:14:16;15.10;99.90
6333;DHT22;3199;49.102;8.856;2022-07-01T06:16:41;15.10;99.90
6333;DHT22;3199;49.102;8.856;2022-07-01T06:19:07;15.10;99.90
6333;DHT22;3199;49.102;8.856;2022-07-01T06:21:33;15.00;99.90
6333;DHT22;3199;49.102;8.856;2022-07-01T06:23:58;15.10;99.90
6333;DHT22;3199;49.102;8.856;2022-07-01T06:26:24;15.10;99.90
6333;DHT22;3199;49.102;8.856;2022-07-01T06:28:50;15.00;99.90
6333;DHT22;3199;49.102;8.856;2022-07-01T06:31:15;14.80;99.90
6333;DHT22;3199;49.102;8.856;2022-07-01T06:33:42;14.80;99.90
6333;DHT22;3199;49.102;8.856;2022-07-01T06:36:07;14.70;99.90
6333;DHT22;3199;49.102;8.856;2022-07-01T06:38:33;14.70;99.90
6333;DHT22;3199;49.102;8.856;2022-07-01T06:40:58;14.80;99.90
6333;DHT22;3199;49.102;8.856;2022-07-01T06:43:43;14.70;99.90
6333;DHT22;3199;49.102;8.856;2022-07-01T06:46:09;14.70;99.90
6333;DHT22;3199;49.102;8.856;2022-07-01T06:48:35;14.80;99.90
6333;DHT22;3199;49.102;8.856;2022-07-01T06:51:01;14.80;99.90
6333;DHT22;3199;49.102;8.856;2022-07-01T06:53:27;14.80;99.90
6333;DHT22;3199;49.102;8.856;2022-07-01T06:55:52;14.80;99.90
6333;DHT22;3199;49.102;8.856;2022-07-01T06:58:18;14.80;99.90
6333;DHT22;3199;49.102;8.856;2022-07-01T07:00:43;14.90;99.90
6333;DHT22;3199;49.102;8.856;2022-07-01T07:03:09;14.80;99.90
6333;DHT22;3199;49.102;8.856;2022-07-01T07:05:34;14.80;99.90
6333;DHT22;3199;49.102;8.856;2022-07-01T07:08:00;14.80;99.90
6333;DHT22;3199;49.102;8.856;2022-07-01T07:10:25;14.90;99.90
6333;DHT22;3199;49.102;8.856;2022-07-01T07:12:51;15.00;99.90
6333;DHT22;3199;49.102;8.856;2022-07-01T07:15:17;15.10;99.90
6333;DHT22;3199;49.102;8.856;2022-07-01T07:17:43;15.10;99.90
6333;DHT22;3199;49.102;8.856;2022-07-01T07:20:09;15.20;99.90
6333;DHT22;3199;49.102;8.856;2022-07-01T07:22:35;15.20;99.90
6333;DHT22;3199;49.102;8.856;2022-07-01T07:25:00;15.10;99.90
6333;DHT22;3199;49.102;8.856;2022-07-01T07:27:26;15.10;99.90
6333;DHT22;3199;49.102;8.856;2022-07-01T07:29:51;15.20;99.90
6333;DHT22;3199;49.102;8.856;2022-07-01T07:32:17;15.20;99.90
6333;DHT22;3199;49.102;8.856;2022-07-01T07:34:42;15.30;99.90
6333;DHT22;3199;49.102;8.856;2022-07-01T07:37:08;15.40;99.90
6333;DHT22;3199;49.102;8.856;2022-07-01T07:39:34;15.30;99.90
6333;DHT22;3199;49.102;8.856;2022-07-01T07:41:59;15.40;99.90
6333;DHT22;3199;49.102;8.856;2022-07-01T07:44:25;15.50;99.90
6333;DHT22;3199;49.102;8.856;2022-07-01T07:46:51;15.50;99.90
6333;DHT22;3199;49.102;8.856;2022-07-01T07:49:16;15.60;99.90
6333;DHT22;3199;49.102;8.856;2022-07-01T07:51:42;15.80;99.90
6333;DHT22;3199;49.102;8.856;2022-07-01T07:54:07;15.90;99.90
6333;DHT22;3199;49.102;8.856;2022-07-01T07:56:33;16.00;99.90
6333;DHT22;3199;49.102;8.856;2022-07-01T07:58:59;16.10;99.90
6333;DHT22;3199;49.102;8.856;2022-07-01T08:01:24;16.20;99.90
6333;DHT22;3199;49.102;8.856;2022-07-01T08:03:50;16.20;99.90
6333;DHT22;3199;49.102;8.856;2022-07-01T08:06:17;16.30;99.90
6333;DHT22;3199;49.102;8.856;2022-07-01T08:08:42;16.30;99.90
6333;DHT22;3199;49.102;8.856;2022-07-01T08:11:08;16.20;99.90
6333;DHT22;3199;49.102;8.856;2022-07-01T08:13:33;16.10;99.90
6333;DHT22;3199;49.102;8.856;2022-07-01T08:16:00;16.00;99.90
6333;DHT22;3199;49.102;8.856;2022-07-01T08:18:25;16.00;99.90
6333;DHT22;3199;49.102;8.856;2022-07-01T08:20:51;16.00;99.90
6333;DHT22;3199;49.102;8.856;2022-07-01T08:23:21;15.90;99.90
6333;DHT22;3199;49.102;8.856;2022-07-01T08:25:48;15.90;99.90
6333;DHT22;3199;49.102;8.856;2022-07-01T08:28:14;15.80;99.90
6333;DHT22;3199;49.102;8.856;2022-07-01T08:30:40;15.90;99.90
6333;DHT22;3199;49.102;8.856;2022-07-01T08:33:05;16.00;99.90
6333;DHT22;3199;49.102;8.856;2022-07-01T08:35:31;16.00;99.90
6333;DHT22;3199;49.102;8.856;2022-07-01T08:37:56;16.20;99.90
6333;DHT22;3199;49.102;8.856;2022-07-01T08:40:30;16.30;99.90
6333;DHT22;3199;49.102;8.856;2022-07-01T08:43:00;16.40;99.90
6333;DHT22;3199;49.102;8.856;2022-07-01T08:45:27;16.40;99.90
6333;DHT22;3199;49.102;8.856;2022-07-01T08:47:55;16.40;99.90
6333;DHT22;3199;49.102;8.856;2022-07-01T08:50:24;16.30;99.90
6333;DHT22;3199;49.102;8.856;2022-07-01T08:52:51;16.10;99.90
6333;DHT22;3199;49.102;8.856;2022-07-01T08:55:17;16.00;99.90
6333;DHT22;3199;49.102;8.856;2022-07-01T08:57:43;16.00;99.90
6333;DHT22;3199;49.102;8.856;2022-07-01T09:00:09;16.00;99.90
6333;DHT22;3199;49.102;8.856;2022-07-01T09:02:55;15.90;99.90
6333;DHT22;3199;49.102;8.856;2022-07-01T09:05:22;15.80;99.90
6333;DHT22;3199;49.102;8.856;2022-07-01T09:07:48;15.60;99.90
6333;DHT22;3199;49.102;8.856;2022-07-01T09:10:16;15.50;99.90
6333;DHT22;3199;49.102;8.856;2022-07-01T09:12:46;15.50;99.90
6333;DHT22;3199;49.102;8.856;2022-07-01T09:15:28;15.50;99.90
6333;DHT22;3199;49.102;8.856;2022-07-01T09:17:56;15.60;99.90
6333;DHT22;3199;49.102;8.856;2022-07-01T09:20:29;15.70;99.90
6333;DHT22;3199;49.102;8.856;2022-07-01T09:23:14;15.90;99.90
6333;DHT22;3199;49.102;8.856;2022-07-01T09:25:43;16.20;99.90
6333;DHT22;3199;49.102;8.856;2022-07-01T09:28:17;16.50;99.90
6333;DHT22;3199;49.102;8.856;2022-07-01T09:30:45;16.70;99.90
6333;DHT22;3199;49.102;8.856;2022-07-01T09:33:14;17.10;99.90
6333;DHT22;3199;49.102;8.856;2022-07-01T09:35:41;17.30;99.90
6333;DHT22;3199;49.102;8.856;2022-07-01T09:38:11;17.50;99.90
6333;DHT22;3199;49.102;8.856;2022-07-01T09:40:56;17.50;99.90
6333;DHT22;3199;49.102;8.856;2022-07-01T09:43:25;17.40;99.90
6333;DHT22;3199;49.102;8.856;2022-07-01T09:46:09;17.40;99.90
6333;DHT22;3199;49.102;8.856;2022-07-01T09:51:02;17.40;99.90
6333;DHT22;3199;49.102;8.856;2022-07-01T09:53:28;17.50;99.90
6333;DHT22;3199;49.102;8.856;2022-07-01T09:55:53;17.40;99.90
6333;DHT22;3199;49.102;8.856;2022-07-01T09:58:19;17.40;99.90
6333;DHT22;3199;49.102;8.856;2022-07-01T10:00:45;17.60;99.90
6333;DHT22;3199;49.102;8.856;2022-07-01T10:03:11;17.60;99.90
6333;DHT22;3199;49.102;8.856;2022-07-01T10:05:57;17.60;99.90
6333;DHT22;3199;49.102;8.856;2022-07-01T10:08:54;17.70;99.90
6333;DHT22;3199;49.102;8.856;2022-07-01T10:14:06;17.80;99.90
6333;DHT22;3199;49.102;8.856;2022-07-01T10:16:32;17.90;99.90
6333;DHT22;3199;49.102;8.856;2022-07-01T10:18:59;18.00;99.90
6333;DHT22;3199;49.102;8.856;2022-07-01T10:21:31;18.10;99.90
6333;DHT22;3199;49.102;8.856;2022-07-01T10:24:13;18.40;99.90
6333;DHT22;3199;49.102;8.856;2022-07-01T10:26:40;18.80;99.90
6333;DHT22;3199;49.102;8.856;2022-07-01T10:29:26;19.30;99.90
6333;DHT22;3199;49.102;8.856;2022-07-01T10:31:53;19.80;99.90
6333;DHT22;3199;49.102;8.856;2022-07-01T10:34:20;20.40;99.90
6333;DHT22;3199;49.102;8.856;2022-07-01T10:37:01;21.00;99.90
6333;DHT22;3199;49.102;8.856;2022-07-01T10:39:27;21.30;99.90
6333;DHT22;3199;49.102;8.856;2022-07-01T10:44:19;21.60;99.90
6333;DHT22;3199;49.102;8.856;2022-07-01T10:46:56;21.40;99.90
6333;DHT22;3199;49.102;8.856;2022-07-01T10:49:51;21.10;99.90
6333;DHT22;3199;49.102;8.856;2022-07-01T10:52:17;21.00;99.90
6333;DHT22;3199;49.102;8.856;2022-07-01T10:59:56;21.00;99.90
6333;DHT22;3199;49.102;8.856;2022-07-01T11:02:38;21.00;99.90
6333;DHT22;3199;49.102;8.856;2022-07-01T11:05:10;20.80;99.90
6333;DHT22;3199;49.102;8.856;2022-07-01T11:07:39;20.50;99.90
6333;DHT22;3199;49.102;8.856;2022-07-01T11:10:07;20.10;99.90
6333;DHT22;3199;49.102;8.856;2022-07-01T11:12:33;19.90;99.90
6333;DHT22;3199;49.102;8.856;2022-07-01T11:14:59;19.90;99.90
6333;DHT22;3199;49.102;8.856;2022-07-01T11:17:27;20.00;99.90
6333;DHT22;3199;49.102;8.856;2022-07-01T11:19:55;20.00;99.90
6333;DHT22;3199;49.102;8.856;2022-07-01T11:22:25;19.80;99.90
6333;DHT22;3199;49.102;8.856;2022-07-01T11:24:52;19.80;99.90
6333;DHT22;3199;49.102;8.856;2022-07-01T11:27:18;20.20;99.90
6333;DHT22;3199;49.102;8.856;2022-07-01T11:29:43;20.80;99.90
6333;DHT22;3199;49.102;8.856;2022-07-01T11:32:09;21.60;99.90
6333;DHT22;3199;49.102;8.856;2022-07-01T11:34:36;22.00;99.90
6333;DHT22;3199;49.102;8.856;2022-07-01T11:37:09;22.40;98.50
6333;DHT22;3199;49.102;8.856;2022-07-01T11:40:23;22.60;97.60
6333;DHT22;3199;49.102;8.856;2022-07-01T11:42:49;22.90;97.50
6333;DHT22;3199;49.102;8.856;2022-07-01T11:45:25;23.00;96.90
6333;DHT22;3199;49.102;8.856;2022-07-01T11:47:52;23.30;96.80
6333;DHT22;3199;49.102;8.856;2022-07-01T11:50:18;23.60;96.80
6333;DHT22;3199;49.102;8.856;2022-07-01T11:52:45;24.00;96.40
6333;DHT22;3199;49.102;8.856;2022-07-01T11:55:11;24.30;93.20
6333;DHT22;3199;49.102;8.856;2022-07-01T11:57:37;24.30;92.60
6333;DHT22;3199;49.102;8.856;2022-07-01T12:00:12;24.10;91.40
6333;DHT22;3199;49.102;8.856;2022-07-01T12:02:38;24.00;92.40
6333;DHT22;3199;49.102;8.856;2022-07-01T12:05:05;24.10;93.40
6333;DHT22;3199;49.102;8.856;2022-07-01T12:07:31;24.10;92.40
6333;DHT22;3199;49.102;8.856;2022-07-01T12:09:57;24.20;92.40
6333;DHT22;3199;49.102;8.856;2022-07-01T12:12:23;24.40;90.70
6333;DHT22;3199;49.102;8.856;2022-07-01T12:14:58;24.40;90.30
6333;DHT22;3199;49.102;8.856;2022-07-01T12:17:26;24.70;92.00
6333;DHT22;3199;49.102;8.856;2022-07-01T12:19:53;24.90;89.70
6333;DHT22;3199;49.102;8.856;2022-07-01T12:22:26;24.80;88.40
6333;DHT22;3199;49.102;8.856;2022-07-01T12:25:04;25.10;88.30
6333;DHT22;3199;49.102;8.856;2022-07-01T12:27:34;25.20;87.70
6333;DHT22;3199;49.102;8.856;2022-07-01T12:30:00;25.20;84.90
6333;DHT22;3199;49.102;8.856;2022-07-01T12:32:27;24.90;85.70
6333;DHT22;3199;49.102;8.856;2022-07-01T12:35:01;24.90;85.90
6333;DHT22;3199;49.102;8.856;2022-07-01T12:37:28;24.80;81.90
6333;DHT22;3199;49.102;8.856;2022-07-01T12:39:56;24.60;83.00
6333;DHT22;3199;49.102;8.856;2022-07-01T12:42:34;24.70;82.90
6333;DHT22;3199;49.102;8.856;2022-07-01T12:45:05;24.90;84.50
6333;DHT22;3199;49.102;8.856;2022-07-01T12:47:45;25.00;84.60
6333;DHT22;3199;49.102;8.856;2022-07-01T12:50:28;24.80;81.60
6333;DHT22;3199;49.102;8.856;2022-07-01T12:55:35;24.40;80.80
6333;DHT22;3199;49.102;8.856;2022-07-01T12:58:04;24.30;80.90
6333;DHT22;3199;49.102;8.856;2022-07-01T13:00:31;24.30;82.50
6333;DHT22;3199;49.102;8.856;2022-07-01T13:02:59;24.50;83.00
6333;DHT22;3199;49.102;8.856;2022-07-01T13:05:25;24.70;82.40
6333;DHT22;3199;49.102;8.856;2022-07-01T13:07:51;24.60;80.60
6333;DHT22;3199;49.102;8.856;2022-07-01T13:10:17;24.60;79.10
6333;DHT22;3199;49.102;8.856;2022-07-01T13:12:44;24.60;79.70
6333;DHT22;3199;49.102;8.856;2022-07-01T13:15:10;24.50;77.40
6333;DHT22;3199;49.102;8.856;2022-07-01T13:17:36;24.40;79.30
6333;DHT22;3199;49.102;8.856;2022-07-01T13:20:02;24.50;77.50
6333;DHT22;3199;49.102;8.856;2022-07-01T13:22:28;24.50;78.40
6333;DHT22;3199;49.102;8.856;2022-07-01T13:24:53;24.60;77.70
6333;DHT22;3199;49.102;8.856;2022-07-01T13:27:19;24.60;78.10
6333;DHT22;3199;49.102;8.856;2022-07-01T13:29:44;24.80;78.20
6333;DHT22;3199;49.102;8.856;2022-07-01T13:32:10;25.10;77.30
6333;DHT22;3199;49.102;8.856;2022-07-01T13:34:36;25.40;75.70
6333;DHT22;3199;49.102;8.856;2022-07-01T13:37:02;25.50;75.10
6333;DHT22;3199;49.102;8.856;2022-07-01T13:39:27;25.60;73.80
6333;DHT22;3199;49.102;8.856;2022-07-01T13:41:53;25.40;75.60
6333;DHT22;3199;49.102;8.856;2022-07-01T13:44:21;25.30;72.60
6333;DHT22;3199;49.102;8.856;2022-07-01T13:46:47;25.30;73.50
6333;DHT22;3199;49.102;8.856;2022-07-01T13:49:13;25.20;75.90
6333;DHT22;3199;49.102;8.856;2022-07-01T13:51:38;24.70;71.50
6333;DHT22;3199;49.102;8.856;2022-07-01T13:54:04;24.60;78.50
6333;DHT22;3199;49.102;8.856;2022-07-01T13:56:29;24.50;73.10
6333;DHT22;3199;49.102;8.856;2022-07-01T13:58:55;24.40;75.20
6333;DHT22;3199;49.102;8.856;2022-07-01T14:01:22;24.20;75.70
6333;DHT22;3199;49.102;8.856;2022-07-01T14:03:49;23.90;74.90
6333;DHT22;3199;49.102;8.856;2022-07-01T14:06:15;23.80;76.50
6333;DHT22;3199;49.102;8.856;2022-07-01T14:08:40;23.80;77.00
6333;DHT22;3199;49.102;8.856;2022-07-01T14:11:07;23.70;79.30
6333;DHT22;3199;49.102;8.856;2022-07-01T14:13:32;23.60;77.50
6333;DHT22;3199;49.102;8.856;2022-07-01T14:16:00;23.60;77.90
6333;DHT22;3199;49.102;8.856;2022-07-01T14:18:26;23.60;79.00
6333;DHT22;3199;49.102;8.856;2022-07-01T14:20:51;23.70;77.30
6333;DHT22;3199;49.102;8.856;2022-07-01T14:23:17;23.70;79.40
6333;DHT22;3199;49.102;8.856;2022-07-01T14:25:42;23.80;79.10
6333;DHT22;3199;49.102;8.856;2022-07-01T14:28:13;24.20;77.50
6333;DHT22;3199;49.102;8.856;2022-07-01T14:30:39;24.50;76.50
6333;DHT22;3199;49.102;8.856;2022-07-01T14:33:04;24.50;75.30
6333;DHT22;3199;49.102;8.856;2022-07-01T14:35:30;24.40;75.20
6333;DHT22;3199;49.102;8.856;2022-07-01T14:37:57;24.10;75.20
6333;DHT22;3199;49.102;8.856;2022-07-01T14:40:24;23.70;73.60
6333;DHT22;3199;49.102;8.856;2022-07-01T14:42:50;23.40;77.10
6333;DHT22;3199;49.102;8.856;2022-07-01T14:45:16;23.30;79.60
6333;DHT22;3199;49.102;8.856;2022-07-01T14:47:42;23.30;79.70
6333;DHT22;3199;49.102;8.856;2022-07-01T14:50:08;23.50;81.70
6333;DHT22;3199;49.102;8.856;2022-07-01T14:52:34;23.90;78.30
6333;DHT22;3199;49.102;8.856;2022-07-01T14:54:59;24.30;75.10
6333;DHT22;3199;49.102;8.856;2022-07-01T14:57:25;24.60;72.70
6333;DHT22;3199;49.102;8.856;2022-07-01T14:59:51;24.90;72.80
6333;DHT22;3199;49.102;8.856;2022-07-01T15:02:17;25.00;72.80
6333;DHT22;3199;49.102;8.856;2022-07-01T15:04:43;25.10;74.40
6333;DHT22;3199;49.102;8.856;2022-07-01T15:07:09;24.90;71.70
6333;DHT22;3199;49.102;8.856;2022-07-01T15:09:34;24.60;71.30
6333;DHT22;3199;49.102;8.856;2022-07-01T15:12:00;24.40;70.90
6333;DHT22;3199;49.102;8.856;2022-07-01T15:14:25;24.30;71.20
6333;DHT22;3199;49.102;8.856;2022-07-01T15:16:51;24.40;71.70
6333;DHT22;3199;49.102;8.856;2022-07-01T15:19:17;24.40;71.90
6333;DHT22;3199;49.102;8.856;2022-07-01T15:21:43;24.40;71.30
6333;DHT22;3199;49.102;8.856;2022-07-01T15:24:08;24.30;72.00
6333;DHT22;3199;49.102;8.856;2022-07-01T15:26:34;24.50;72.20
6333;DHT22;3199;49.102;8.856;2022-07-01T15:28:59;24.50;72.20
6333;DHT22;3199;49.102;8.856;2022-07-01T15:31:25;24.50;71.40
6333;DHT22;3199;49.102;8.856;2022-07-01T15:33:53;24.30;71.00
6333;DHT22;3199;49.102;8.856;2022-07-01T15:36:19;24.20;72.10
6333;DHT22;3199;49.102;8.856;2022-07-01T15:38:45;24.10;72.50
6333;DHT22;3199;49.102;8.856;2022-07-01T15:41:11;24.20;69.90
6333;DHT22;3199;49.102;8.856;2022-07-01T15:43:36;24.10;72.40
6333;DHT22;3199;49.102;8.856;2022-07-01T15:46:02;24.20;73.00
6333;DHT22;3199;49.102;8.856;2022-07-01T15:48:27;24.20;72.40
6333;DHT22;3199;49.102;8.856;2022-07-01T15:50:53;24.30;73.00
6333;DHT22;3199;49.102;8.856;2022-07-01T15:53:20;24.40;73.50
6333;DHT22;3199;49.102;8.856;2022-07-01T15:55:49;24.40;71.60
6333;DHT22;3199;49.102;8.856;2022-07-01T15:58:18;24.50;72.70
6333;DHT22;3199;49.102;8.856;2022-07-01T16:00:46;24.60;70.00
6333;DHT22;3199;49.102;8.856;2022-07-01T16:03:12;24.50;69.90
6333;DHT22;3199;49.102;8.856;2022-07-01T16:05:39;24.30;70.60
6333;DHT22;3199;49.102;8.856;2022-07-01T16:08:07;24.20;72.20
6333;DHT22;3199;49.102;8.856;2022-07-01T16:10:47;24.20;73.20
6333;DHT22;3199;49.102;8.856;2022-07-01T16:13:16;24.20;73.00
6333;DHT22;3199;49.102;8.856;2022-07-01T16:15:45;24.20;73.20
6333;DHT22;3199;49.102;8.856;2022-07-01T16:18:12;24.30;72.50